Time;durP1;ratioP1;P1;durP2;ratioP2;P2;SDS_P1;SDS_P2;PMS_P1;PMS_P2;Temp;Humidity;BMP_temperature;BMP_pressure;BME280_temperature;BME280_humidity;BME280_pressure;Samples;Min_cycle;Max_cycle;Signal;HPM_P1;HPM_P2
2021/10/04 00:00:44;;;;;;;12.43;6.57;;;436.00;1177.60;;;;;;4960611;29;20027;-69
2021/10/04 00:03:09;;;;;;;12.68;8.00;;;436.00;1203.20;;;;;;4960648;29;20008;-69
2021/10/04 00:05:35;;;;;;;11.30;6.80;;;436.00;1203.20;;;;;;4960542;29;20040;-69
2021/10/04 00:08:02;;;;;;;11.85;6.97;;;460.80;1203.20;;;;;;4960614;29;20039;-69
2021/10/04 00:10:28;;;;;;;11.43;6.70;;;436.00;1203.20;;;;;;4960542;29;20027;-69
2021/10/04 00:12:54;;;;;;;15.95;6.47;;;436.00;1177.60;;;;;;4960291;29;20012;-69
2021/10/04 00:15:23;;;;;;;10.15;5.82;;;436.00;1203.20;;;;;;4960436;29;20019;-70
2021/10/04 00:17:55;;;;;;;9.18;6.55;;;436.00;1203.20;;;;;;4960487;29;20016;-70
2021/10/04 00:20:21;;;;;;;8.65;6.30;;;436.00;1203.20;;;;;;4960524;29;20047;-69
2021/10/04 00:22:48;;;;;;;9.05;6.40;;;436.00;1203.20;;;;;;4944067;29;20032;-70
2021/10/04 00:25:14;;;;;;;11.88;6.32;;;436.00;1203.20;;;;;;4960401;29;20016;-69
2021/10/04 00:27:40;;;;;;;14.65;6.53;;;436.00;1203.20;;;;;;4960357;29;20047;-69
2021/10/04 00:30:08;;;;;;;9.35;6.25;;;436.00;1203.20;;;;;;4960422;29;20036;-69
2021/10/04 00:32:36;;;;;;;13.25;6.93;;;436.00;1203.20;;;;;;4959910;29;20024;-69
2021/10/04 00:35:04;;;;;;;12.73;5.97;;;435.90;1203.20;;;;;;4960404;29;20019;-70
2021/10/04 00:37:30;;;;;;;10.70;6.88;;;435.90;1203.20;;;;;;4960288;29;20055;-69
2021/10/04 00:39:56;;;;;;;9.23;6.30;;;435.90;1203.20;;;;;;4962210;29;20027;-70
2021/10/04 00:42:22;;;;;;;9.60;6.53;;;435.90;1203.20;;;;;;4963621;29;20055;-70
2021/10/04 00:44:49;;;;;;;15.85;6.75;;;435.90;1203.20;;;;;;4963660;29;20035;-70
2021/10/04 00:47:16;;;;;;;15.25;6.90;;;435.90;1203.20;;;;;;4963744;29;20036;-69
2021/10/04 00:49:43;;;;;;;14.60;6.65;;;435.90;1203.20;;;;;;4963622;29;20071;-70
2021/10/04 00:52:09;;;;;;;11.52;6.65;;;435.90;1203.20;;;;;;4963512;29;20038;-69
2021/10/04 00:54:35;;;;;;;10.05;6.35;;;435.90;1203.20;;;;;;4963625;29;20035;-70
2021/10/04 00:57:01;;;;;;;14.48;6.53;;;435.90;1203.20;;;;;;4955567;29;20016;-69
2021/10/04 00:59:27;;;;;;;15.75;6.95;;;435.90;1203.20;;;;;;4963431;29;20028;-69
2021/10/04 01:01:53;;;;;;;9.65;6.28;;;435.90;1203.20;;;;;;4963406;29;20040;-70
2021/10/04 01:04:25;;;;;;;9.20;5.60;;;435.90;1203.20;;;;;;4963439;29;20019;-70
2021/10/04 01:06:52;;;;;;;10.57;6.00;;;435.90;1203.20;;;;;;4963342;29;20027;-69
2021/10/04 01:09:18;;;;;;;8.88;6.43;;;435.90;1203.20;;;;;;4963400;29;20012;-70
2021/10/04 01:11:44;;;;;;;9.90;6.88;;;435.90;1203.20;;;;;;4963124;29;20048;-69
2021/10/04 01:14:10;;;;;;;10.05;6.60;;;435.80;1203.20;;;;;;4962986;29;20016;-69
2021/10/04 01:16:36;;;;;;;12.65;6.20;;;435.90;1203.20;;;;;;4963160;29;20023;-69
2021/10/04 01:19:01;;;;;;;11.77;6.43;;;435.80;1203.20;;;;;;4963070;29;20012;-69
2021/10/04 01:21:38;;;;;;;11.70;6.20;;;435.80;1203.20;;;;;;4963109;29;20048;-70
2021/10/04 01:24:06;;;;;;;11.88;7.05;;;435.70;1203.20;;;;;;4962956;29;20008;-70
2021/10/04 01:26:32;;;;;;;11.32;6.43;;;435.80;1203.20;;;;;;4962974;29;20090;-69
2021/10/04 01:28:58;;;;;;;11.95;6.45;;;435.70;1228.80;;;;;;4962953;29;20030;-69
2021/10/04 01:31:24;;;;;;;14.48;6.43;;;435.70;1203.20;;;;;;4962881;29;20019;-69
2021/10/04 01:33:55;;;;;;;14.85;6.43;;;435.70;1203.20;;;;;;4962927;29;20036;-70
2021/10/04 01:36:26;;;;;;;8.95;6.50;;;435.70;1203.20;;;;;;4962388;29;20028;-70
2021/10/04 01:38:55;;;;;;;9.10;6.32;;;435.70;1203.20;;;;;;4962765;29;20012;-69
2021/10/04 01:41:21;;;;;;;10.07;6.05;;;435.70;1203.20;;;;;;4962521;29;20028;-69
2021/10/04 01:43:47;;;;;;;14.40;6.32;;;435.70;1203.20;;;;;;4962612;29;20035;-69
2021/10/04 01:46:13;;;;;;;12.07;6.55;;;435.70;1203.20;;;;;;4962599;29;20016;-69
2021/10/04 01:48:39;;;;;;;9.73;6.47;;;435.70;1228.80;;;;;;4962586;29;20024;-69
2021/10/04 01:51:05;;;;;;;13.50;7.03;;;435.70;1203.20;;;;;;4961595;29;20028;-70
2021/10/04 01:53:31;;;;;;;10.98;6.10;;;435.70;1203.20;;;;;;4962500;29;20007;-69
2021/10/04 01:55:57;;;;;;;11.52;6.20;;;435.70;1203.20;;;;;;4962401;29;20043;-69
2021/10/04 01:58:23;;;;;;;8.90;6.07;;;435.70;1228.80;;;;;;4962317;29;20012;-69
2021/10/04 02:00:49;;;;;;;13.23;6.05;;;435.60;1228.80;;;;;;4962310;29;20066;-69
2021/10/04 02:03:15;;;;;;;8.88;6.32;;;435.60;1203.20;;;;;;4962389;29;20169;-69
2021/10/04 02:05:41;;;;;;;12.13;5.80;;;435.60;1228.80;;;;;;4962209;29;20075;-70
2021/10/04 02:08:07;;;;;;;10.00;5.68;;;435.60;1228.80;;;;;;4962243;29;20084;-69
2021/10/04 02:10:36;;;;;;;10.55;6.15;;;435.60;1228.80;;;;;;4962057;29;20047;-69
2021/10/04 02:13:05;;;;;;;10.65;5.82;;;435.60;1228.80;;;;;;4962109;29;20012;-69
2021/10/04 02:15:31;;;;;;;9.18;6.00;;;435.60;1228.80;;;;;;4945769;29;20087;-69
2021/10/04 02:17:58;;;;;;;15.10;6.10;;;435.60;1228.80;;;;;;4962057;29;20047;-69
2021/10/04 02:20:27;;;;;;;12.10;6.07;;;435.60;1228.80;;;;;;4945633;29;20346;-68
2021/10/04 02:22:53;;;;;;;9.43;6.13;;;435.60;1228.80;;;;;;4961837;29;20003;-70
2021/10/04 02:25:20;;;;;;;12.57;5.20;;;435.50;1228.80;;;;;;4961870;29;20026;-69
2021/10/04 02:27:47;;;;;;;10.32;5.68;;;435.50;1228.80;;;;;;4961781;29;20016;-70
2021/10/04 02:30:18;;;;;;;9.20;5.78;;;435.50;1228.80;;;;;;4961870;29;20024;-69
2021/10/04 02:32:44;;;;;;;11.27;5.95;;;435.40;1228.80;;;;;;4961810;29;20016;-69
2021/10/04 02:35:10;;;;;;;9.70;6.10;;;435.40;1228.80;;;;;;4961712;29;20030;-70
2021/10/04 02:37:36;;;;;;;7.70;5.15;;;435.50;1228.80;;;;;;4961493;29;20043;-69
2021/10/04 02:40:04;;;;;;;9.93;5.75;;;435.50;1228.80;;;;;;4961603;29;20071;-69
2021/10/04 02:42:29;;;;;;;8.85;5.28;;;435.40;1228.80;;;;;;4961495;29;20008;-69
2021/10/04 02:44:55;;;;;;;8.93;4.82;;;435.40;1228.80;;;;;;4961502;29;20023;-69
2021/10/04 02:47:21;;;;;;;7.47;5.43;;;435.40;1228.80;;;;;;4960945;29;20040;-69
2021/10/04 02:49:47;;;;;;;11.88;5.28;;;435.50;1228.80;;;;;;4961522;29;20050;-69
2021/10/04 02:52:16;;;;;;;11.15;5.40;;;435.40;1228.80;;;;;;4961408;29;20067;-69
2021/10/04 02:54:42;;;;;;;11.85;5.35;;;435.40;1228.80;;;;;;4961403;29;20008;-69
2021/10/04 02:57:07;;;;;;;9.18;4.45;;;435.40;1228.80;;;;;;4961301;29;20047;-69
2021/10/04 02:59:33;;;;;;;10.80;5.40;;;435.40;1228.80;;;;;;4961308;29;20016;-68
2021/10/04 03:01:59;;;;;;;8.70;5.57;;;435.40;1228.80;;;;;;4961083;29;20020;-69
2021/10/04 03:04:25;;;;;;;7.30;4.60;;;435.40;1228.80;;;;;;4960577;29;20016;-69
2021/10/04 03:06:51;;;;;;;14.48;4.78;;;435.40;1228.80;;;;;;4961175;29;20050;-69
2021/10/04 03:09:16;;;;;;;9.13;4.90;;;435.40;1228.80;;;;;;4961260;29;20018;-69
2021/10/04 03:11:42;;;;;;;16.38;5.07;;;435.40;1228.80;;;;;;4961012;29;20035;-70
2021/10/04 03:14:08;;;;;;;7.35;4.50;;;435.40;1254.40;;;;;;4944195;29;20022;-70
2021/10/04 03:17:01;;;;;;;11.70;5.18;;;435.30;1254.40;;;;;;4960817;29;20083;-69
2021/10/04 03:19:25;;;;;;;19.45;6.03;;;435.30;1254.40;;;;;;4960648;29;20020;-69
2021/10/04 03:21:51;;;;;;;21.60;6.72;;;435.30;1254.40;;;;;;4960280;29;20043;-69
2021/10/04 03:24:17;;;;;;;8.38;4.88;;;435.40;1254.40;;;;;;4960984;29;20035;-70
2021/10/04 03:26:43;;;;;;;8.05;5.25;;;435.30;1228.80;;;;;;4960954;29;20023;-70
2021/10/04 03:29:10;;;;;;;7.70;4.70;;;435.30;1228.80;;;;;;4960622;29;20012;-70
2021/10/04 03:31:37;;;;;;;9.90;4.93;;;435.30;1228.80;;;;;;4960902;29;20016;-70
2021/10/04 03:34:04;;;;;;;10.38;4.35;;;435.30;1228.80;;;;;;4960929;29;20012;-70
2021/10/04 03:36:30;;;;;;;7.43;4.32;;;435.30;1228.80;;;;;;4960675;29;20040;-69
2021/10/04 03:38:56;;;;;;;11.20;5.35;;;435.30;1228.80;;;;;;4960678;29;20036;-69
2021/10/04 03:41:23;;;;;;;8.05;4.38;;;435.30;1228.80;;;;;;4944057;29;20070;-69
2021/10/04 03:43:50;;;;;;;6.97;4.60;;;435.20;1254.40;;;;;;4960846;29;20020;-69
2021/10/04 03:46:16;;;;;;;10.80;4.32;;;435.20;1254.40;;;;;;4960817;29;20022;-70
2021/10/04 03:48:41;;;;;;;7.55;4.57;;;435.20;1228.80;;;;;;4960785;29;20016;-69
2021/10/04 03:51:07;;;;;;;11.00;5.15;;;435.20;1228.80;;;;;;4960691;29;20054;-70
2021/10/04 03:53:33;;;;;;;9.15;4.60;;;410.50;1254.40;;;;;;4960686;29;20040;-69
2021/10/04 03:55:59;;;;;;;10.00;4.50;;;410.50;1228.80;;;;;;4960763;29;20080;-70
2021/10/04 03:58:24;;;;;;;9.38;5.50;;;410.50;1254.40;;;;;;4960607;29;20019;-70
2021/10/04 04:00:50;;;;;;;7.75;4.50;;;410.40;1254.40;;;;;;4959956;29;20012;-69
2021/10/04 04:03:16;;;;;;;10.35;4.70;;;410.40;1254.40;;;;;;4960683;29;20051;-70
2021/10/04 04:05:42;;;;;;;12.60;4.90;;;410.40;1254.40;;;;;;4960597;29;20023;-69
2021/10/04 04:08:08;;;;;;;6.47;4.63;;;410.40;1228.80;;;;;;4960596;29;20047;-69
2021/10/04 04:10:33;;;;;;;8.52;4.20;;;410.30;1254.40;;;;;;4960490;29;20015;-69
2021/10/04 04:12:59;;;;;;;8.15;4.63;;;410.30;1254.40;;;;;;4960554;29;20028;-69
2021/10/04 04:15:25;;;;;;;8.60;4.75;;;410.30;1254.40;;;;;;4963394;29;20073;-69
2021/10/04 04:17:51;;;;;;;7.78;4.25;;;410.30;1254.40;;;;;;4964242;29;20087;-69
2021/10/04 04:20:17;;;;;;;8.48;4.72;;;410.20;1254.40;;;;;;4964262;29;20019;-70
2021/10/04 04:22:43;;;;;;;10.05;4.47;;;410.30;1254.40;;;;;;4964112;29;20043;-69
2021/10/04 04:25:10;;;;;;;13.88;4.78;;;410.20;1280.00;;;;;;4964077;29;20019;-70
2021/10/04 04:27:37;;;;;;;7.40;4.95;;;410.10;1280.00;;;;;;4964065;29;20031;-69
2021/10/04 04:30:07;;;;;;;9.07;4.72;;;410.10;1280.00;;;;;;4964029;29;20087;-69
2021/10/04 04:32:33;;;;;;;8.20;4.55;;;410.20;1254.40;;;;;;4963909;29;20063;-69
2021/10/04 04:35:05;;;;;;;6.25;4.25;;;410.20;1280.00;;;;;;4963671;29;20071;-69
2021/10/04 04:37:31;;;;;;;11.35;4.63;;;410.10;1280.00;;;;;;4963733;29;20067;-70
2021/10/04 04:39:57;;;;;;;11.52;4.78;;;410.10;1254.40;;;;;;4963848;29;20177;-69
2021/10/04 04:42:23;;;;;;;6.18;4.35;;;410.10;1280.00;;;;;;4963749;29;20027;-69
2021/10/04 04:44:51;;;;;;;10.85;5.38;;;410.00;1280.00;;;;;;4963712;29;20019;-69
2021/10/04 04:47:16;;;;;;;8.10;4.65;;;410.00;1280.00;;;;;;4963672;29;20047;-69
2021/10/04 04:49:42;;;;;;;7.35;4.38;;;410.00;1280.00;;;;;;4963674;29;20007;-69
2021/10/04 04:52:08;;;;;;;11.52;4.82;;;410.00;1280.00;;;;;;4963580;29;20023;-69
2021/10/04 04:54:34;;;;;;;10.55;4.07;;;410.00;1280.00;;;;;;4963506;29;20032;-70
2021/10/04 04:57:00;;;;;;;10.25;4.80;;;410.00;1280.00;;;;;;4963074;29;20044;-69
2021/10/04 04:59:27;;;;;;;12.27;5.45;;;410.00;1280.00;;;;;;4963485;29;20015;-69
2021/10/04 05:01:53;;;;;;;10.73;5.00;;;410.00;1280.00;;;;;;4963419;29;20020;-69
2021/10/04 05:04:18;;;;;;;13.30;4.88;;;410.00;1280.00;;;;;;4963399;29;20104;-68
2021/10/04 05:06:44;;;;;;;7.55;4.88;;;410.00;1280.00;;;;;;4963313;29;20031;-68
2021/10/04 05:09:10;;;;;;;6.00;3.95;;;410.00;1280.00;;;;;;4963426;29;20084;-68
2021/10/04 05:11:36;;;;;;;10.05;4.47;;;410.00;1280.00;;;;;;4963085;29;20026;-69
2021/10/04 05:14:02;;;;;;;9.32;4.95;;;410.00;1280.00;;;;;;4963224;29;20008;-69
2021/10/04 05:16:28;;;;;;;7.82;4.65;;;410.00;1305.60;;;;;;4963231;29;20028;-69
2021/10/04 05:18:53;;;;;;;9.77;4.30;;;410.00;1280.00;;;;;;4963107;29;20044;-69
2021/10/04 05:21:19;;;;;;;11.55;4.65;;;410.00;1305.60;;;;;;4963114;29;20040;-69
2021/10/04 05:23:45;;;;;;;17.90;6.15;;;410.00;1305.60;;;;;;4962969;29;20032;-69
2021/10/04 05:26:11;;;;;;;9.98;5.28;;;410.00;1305.60;;;;;;4962973;29;20027;-69
2021/10/04 05:28:36;;;;;;;9.35;4.35;;;410.00;1305.60;;;;;;4963020;29;20011;-69
2021/10/04 05:31:02;;;;;;;12.07;4.10;;;410.00;1305.60;;;;;;4962862;29;20028;-69
2021/10/04 05:33:28;;;;;;;19.05;5.07;;;410.00;1305.60;;;;;;4962925;29;20035;-69
2021/10/04 05:35:54;;;;;;;11.88;4.63;;;410.00;1305.60;;;;;;4962836;29;20020;-68
2021/10/04 05:38:20;;;;;;;8.63;4.28;;;410.00;1305.60;;;;;;4962692;29;20031;-68
2021/10/04 05:40:46;;;;;;;10.02;5.25;;;410.00;1305.60;;;;;;4962744;29;20022;-69
2021/10/04 05:43:11;;;;;;;12.85;4.25;;;410.10;1305.60;;;;;;4962692;29;20008;-68
2021/10/04 05:45:37;;;;;;;13.30;4.90;;;410.10;1305.60;;;;;;4962680;29;20027;-68
2021/10/04 05:48:03;;;;;;;14.93;4.80;;;410.10;1305.60;;;;;;4962742;29;20031;-68
2021/10/04 05:50:29;;;;;;;18.23;4.82;;;410.10;1305.60;;;;;;4946164;29;20028;-69
2021/10/04 05:52:55;;;;;;;9.77;4.95;;;410.20;1305.60;;;;;;4962429;29;20043;-68
2021/10/04 05:55:21;;;;;;;20.08;4.53;;;410.20;1305.60;;;;;;4962356;29;20091;-68
2021/10/04 05:57:46;;;;;;;13.10;4.38;;;410.20;1305.60;;;;;;4962415;29;20027;-69
2021/10/04 06:00:14;;;;;;;13.48;4.50;;;410.20;1305.60;;;;;;4962438;29;20045;-69
2021/10/04 06:02:40;;;;;;;10.95;4.20;;;410.20;1305.60;;;;;;4961426;29;20040;-68
2021/10/04 06:05:07;;;;;;;11.27;4.40;;;410.30;1305.60;;;;;;4961361;29;20014;-69
2021/10/04 06:07:33;;;;;;;20.17;4.10;;;410.30;1305.60;;;;;;4961340;29;20012;-69
2021/10/04 06:09:59;;;;;;;25.48;6.20;;;410.30;1305.60;;;;;;4961301;29;20088;-69
2021/10/04 06:12:26;;;;;;;15.15;4.25;;;410.30;1305.60;;;;;;4961158;29;20024;-68
2021/10/04 06:14:55;;;;;;;16.23;5.07;;;410.40;1305.60;;;;;;4961266;29;20030;-68
2021/10/04 06:17:22;;;;;;;20.33;5.10;;;410.40;1305.60;;;;;;4961812;29;20008;-69
2021/10/04 06:19:48;;;;;;;12.30;4.97;;;410.40;1305.60;;;;;;4961219;29;20023;-69
2021/10/04 06:22:14;;;;;;;17.35;5.00;;;410.40;1305.60;;;;;;4961290;29;20093;-69
2021/10/04 06:24:40;;;;;;;15.20;5.03;;;410.50;1305.60;;;;;;4961823;29;20020;-70
2021/10/04 06:27:05;;;;;;;15.73;4.55;;;410.50;1305.60;;;;;;4961642;29;20019;-69
2021/10/04 06:29:31;;;;;;;18.10;4.90;;;435.20;1305.60;;;;;;4961798;29;20043;-70
2021/10/04 06:31:57;;;;;;;9.52;4.90;;;435.20;1305.60;;;;;;4961424;29;20040;-70
2021/10/04 06:34:22;;;;;;;10.20;4.85;;;435.30;1305.60;;;;;;4961747;29;20016;-70
2021/10/04 06:36:48;;;;;;;10.27;4.25;;;435.30;1305.60;;;;;;4960742;29;20036;-70
2021/10/04 06:39:14;;;;;;;18.05;5.13;;;435.30;1305.60;;;;;;4960880;29;20023;-69
2021/10/04 06:41:41;;;;;;;18.85;4.50;;;435.40;1305.60;;;;;;4960954;29;20015;-69
2021/10/04 06:44:08;;;;;;;17.88;4.38;;;435.40;1305.60;;;;;;4960759;29;20035;-69
2021/10/04 06:46:37;;;;;;;18.20;4.78;;;435.50;1280.00;;;;;;4944425;29;20019;-70
2021/10/04 06:49:05;;;;;;;15.10;4.47;;;435.60;1280.00;;;;;;4960885;29;20084;-70
2021/10/04 06:51:31;;;;;;;18.75;4.40;;;435.60;1280.00;;;;;;4960451;29;20108;-70
2021/10/04 06:53:57;;;;;;;11.98;4.10;;;435.70;1280.00;;;;;;4960657;29;20019;-71
2021/10/04 06:56:23;;;;;;;9.20;4.85;;;435.80;1254.40;;;;;;4960695;29;20035;-70
2021/10/04 06:58:49;;;;;;;29.88;5.25;;;435.90;1254.40;;;;;;4960581;29;20142;-70
2021/10/04 07:01:15;;;;;;;29.77;5.78;;;435.90;1254.40;;;;;;4960587;29;20079;-70
2021/10/04 07:03:40;;;;;;;18.58;5.40;;;436.00;1254.40;;;;;;4960583;29;20020;-70
2021/10/04 07:06:06;;;;;;;21.25;5.38;;;436.10;1228.80;;;;;;4960459;29;20008;-70
2021/10/04 07:08:32;;;;;;;18.00;5.22;;;460.80;1254.40;;;;;;4960321;29;20012;-70
2021/10/04 07:10:58;;;;;;;20.23;4.55;;;460.90;1228.80;;;;;;4960342;29;20038;-69
2021/10/04 07:13:23;;;;;;;9.10;4.70;;;461.00;1228.80;;;;;;4960415;29;20039;-69
2021/10/04 07:15:49;;;;;;;13.85;5.47;;;461.10;1228.80;;;;;;4960519;29;20008;-70
2021/10/04 07:18:15;;;;;;;16.88;4.82;;;461.20;1228.80;;;;;;4960306;29;20020;-70
2021/10/04 07:20:41;;;;;;;19.20;6.65;;;461.30;1228.80;;;;;;4960240;29;20023;-69
2021/10/04 07:23:07;;;;;;;14.93;6.63;;;461.50;1203.20;;;;;;4960309;29;20020;-71
2021/10/04 07:25:33;;;;;;;16.40;5.85;;;461.60;1203.20;;;;;;4960248;29;20076;-70
2021/10/04 07:28:00;;;;;;;20.10;5.55;;;486.40;1177.60;;;;;;4960222;29;20015;-70
2021/10/04 07:30:26;;;;;;;12.85;5.15;;;486.50;1177.60;;;;;;4960154;29;20016;-70
2021/10/04 07:32:52;;;;;;;12.35;5.82;;;486.60;1152.00;;;;;;4960050;29;20034;-70
2021/10/04 07:35:18;;;;;;;13.57;5.93;;;486.80;1152.00;;;;;;4960144;29;20031;-70
2021/10/04 07:37:44;;;;;;;13.00;6.40;;;487.00;1152.00;;;;;;4915692;29;1312965;-70
2021/10/04 07:40:11;;;;;;;18.95;6.05;;;487.10;1152.00;;;;;;4960515;29;20028;-70
2021/10/04 07:42:38;;;;;;;33.60;6.82;;;487.30;1152.00;;;;;;4960759;29;20012;-70
